sensor_id;sensor_type;location;lat;lon;timestamp;P1;durP1;ratioP1;P2;durP2;ratioP2
33810;SDS011;20119;48.334;16.206;2024-03-23T00:54:53;10.80;;;8.95;;
33810;SDS011;20119;48.334;16.206;2024-03-23T00:57:20;10.98;;;9.02;;
33810;SDS011;20119;48.334;16.206;2024-03-23T00:59:47;10.70;;;9.30;;
33810;SDS011;20119;48.334;16.206;2024-03-23T01:02:14;13.43;;;9.10;;
33810;SDS011;20119;48.334;16.206;2024-03-23T01:04:40;11.00;;;8.93;;
33810;SDS011;20119;48.334;16.206;2024-03-23T01:07:08;11.68;;;8.43;;
33810;SDS011;20119;48.334;16.206;2024-03-23T01:09:34;11.23;;;9.20;;
33810;SDS011;20119;48.334;16.206;2024-03-23T01:12:05;10.57;;;8.52;;
33810;SDS011;20119;48.334;16.206;2024-03-23T01:14:31;10.52;;;8.35;;
33810;SDS011;20119;48.334;16.206;2024-03-23T01:16:59;11.43;;;8.60;;
33810;SDS011;20119;48.334;16.206;2024-03-23T01:19:26;12.57;;;9.15;;
33810;SDS011;20119;48.334;16.206;2024-03-23T01:21:54;10.35;;;8.73;;
33810;SDS011;20119;48.334;16.206;2024-03-23T01:24:20;12.48;;;8.93;;
33810;SDS011;20119;48.334;16.206;2024-03-23T01:26:47;15.60;;;9.88;;
33810;SDS011;20119;48.334;16.206;2024-03-23T01:29:15;11.57;;;10.00;;
33810;SDS011;20119;48.334;16.206;2024-03-23T01:31:42;12.18;;;10.35;;
33810;SDS011;20119;48.334;16.206;2024-03-23T01:34:08;13.75;;;10.40;;
33810;SDS011;20119;48.334;16.206;2024-03-23T01:36:36;13.18;;;10.38;;
33810;SDS011;20119;48.334;16.206;2024-03-23T01:39:02;12.02;;;10.25;;
33810;SDS011;20119;48.334;16.206;2024-03-23T01:41:29;14.15;;;9.35;;
33810;SDS011;20119;48.334;16.206;2024-03-23T01:43:56;12.35;;;9.57;;
33810;SDS011;20119;48.334;16.206;2024-03-23T01:46:25;12.45;;;9.60;;
33810;SDS011;20119;48.334;16.206;2024-03-23T01:48:51;11.55;;;9.20;;
33810;SDS011;20119;48.334;16.206;2024-03-23T01:51:18;11.70;;;9.70;;
33810;SDS011;20119;48.334;16.206;2024-03-23T01:53:45;14.05;;;10.50;;
33810;SDS011;20119;48.334;16.206;2024-03-23T01:56:12;13.88;;;9.85;;
33810;SDS011;20119;48.334;16.206;2024-03-23T01:58:39;12.02;;;9.88;;
33810;SDS011;20119;48.334;16.206;2024-03-23T02:01:06;13.52;;;10.75;;
33810;SDS011;20119;48.334;16.206;2024-03-23T02:03:34;13.10;;;10.93;;
33810;SDS011;20119;48.334;16.206;2024-03-23T02:06:01;16.15;;;10.77;;
33810;SDS011;20119;48.334;16.206;2024-03-23T02:08:28;12.18;;;10.45;;
33810;SDS011;20119;48.334;16.206;2024-03-23T02:10:56;12.63;;;9.77;;
33810;SDS011;20119;48.334;16.206;2024-03-23T02:13:23;14.27;;;10.40;;
33810;SDS011;20119;48.334;16.206;2024-03-23T02:15:51;11.23;;;9.63;;
33810;SDS011;20119;48.334;16.206;2024-03-23T02:18:18;10.80;;;9.73;;
33810;SDS011;20119;48.334;16.206;2024-03-23T02:20:46;13.43;;;10.05;;
33810;SDS011;20119;48.334;16.206;2024-03-23T02:23:14;11.73;;;10.10;;
33810;SDS011;20119;48.334;16.206;2024-03-23T02:25:43;11.73;;;10.20;;
33810;SDS011;20119;48.334;16.206;2024-03-23T02:28:09;13.50;;;9.38;;
33810;SDS011;20119;48.334;16.206;2024-03-23T02:30:36;12.45;;;10.00;;
33810;SDS011;20119;48.334;16.206;2024-03-23T02:33:03;12.13;;;10.15;;
33810;SDS011;20119;48.334;16.206;2024-03-23T02:35:30;13.13;;;10.15;;
33810;SDS011;20119;48.334;16.206;2024-03-23T02:37:56;11.95;;;9.50;;
33810;SDS011;20119;48.334;16.206;2024-03-23T02:40:25;12.93;;;10.07;;
33810;SDS011;20119;48.334;16.206;2024-03-23T02:42:52;12.68;;;10.10;;
33810;SDS011;20119;48.334;16.206;2024-03-23T02:45:19;11.13;;;9.70;;
33810;SDS011;20119;48.334;16.206;2024-03-23T02:47:45;11.35;;;9.95;;
33810;SDS011;20119;48.334;16.206;2024-03-23T02:50:17;11.73;;;9.50;;
33810;SDS011;20119;48.334;16.206;2024-03-23T02:52:43;14.90;;;10.25;;
33810;SDS011;20119;48.334;16.206;2024-03-23T02:55:10;11.85;;;9.70;;
33810;SDS011;20119;48.334;16.206;2024-03-23T02:57:38;12.73;;;9.60;;
33810;SDS011;20119;48.334;16.206;2024-03-23T03:00:06;13.68;;;10.70;;
33810;SDS011;20119;48.334;16.206;2024-03-23T03:02:32;12.85;;;10.13;;
33810;SDS011;20119;48.334;16.206;2024-03-23T03:04:59;15.43;;;11.60;;
33810;SDS011;20119;48.334;16.206;2024-03-23T03:07:26;13.68;;;11.40;;
33810;SDS011;20119;48.334;16.206;2024-03-23T03:09:53;15.70;;;12.02;;
33810;SDS011;20119;48.334;16.206;2024-03-23T03:12:20;16.83;;;12.20;;
33810;SDS011;20119;48.334;16.206;2024-03-23T03:14:48;14.60;;;12.40;;
33810;SDS011;20119;48.334;16.206;2024-03-23T03:17:15;14.88;;;12.45;;
33810;SDS011;20119;48.334;16.206;2024-03-23T03:19:42;13.90;;;11.95;;
33810;SDS011;20119;48.334;16.206;2024-03-23T03:22:08;12.75;;;11.45;;
33810;SDS011;20119;48.334;16.206;2024-03-23T03:24:36;15.27;;;11.10;;
33810;SDS011;20119;48.334;16.206;2024-03-23T03:27:02;14.20;;;11.20;;
33810;SDS011;20119;48.334;16.206;2024-03-23T03:29:31;13.82;;;10.65;;
33810;SDS011;20119;48.334;16.206;2024-03-23T03:32:02;13.63;;;10.70;;
33810;SDS011;20119;48.334;16.206;2024-03-23T03:34:29;15.10;;;11.05;;
33810;SDS011;20119;48.334;16.206;2024-03-23T03:36:56;14.07;;;11.02;;
33810;SDS011;20119;48.334;16.206;2024-03-23T03:39:23;14.63;;;10.73;;
33810;SDS011;20119;48.334;16.206;2024-03-23T03:41:49;14.40;;;10.95;;
33810;SDS011;20119;48.334;16.206;2024-03-23T03:44:17;12.40;;;11.10;;
33810;SDS011;20119;48.334;16.206;2024-03-23T03:46:43;11.63;;;10.43;;
33810;SDS011;20119;48.334;16.206;2024-03-23T03:49:12;12.95;;;10.95;;
33810;SDS011;20119;48.334;16.206;2024-03-23T03:51:38;14.07;;;11.30;;
33810;SDS011;20119;48.334;16.206;2024-03-23T03:54:05;12.85;;;11.55;;
33810;SDS011;20119;48.334;16.206;2024-03-23T03:56:32;15.40;;;11.45;;
33810;SDS011;20119;48.334;16.206;2024-03-23T03:58:59;14.63;;;12.50;;
33810;SDS011;20119;48.334;16.206;2024-03-23T04:01:25;13.40;;;12.00;;
33810;SDS011;20119;48.334;16.206;2024-03-23T04:03:52;15.13;;;12.82;;
33810;SDS011;20119;48.334;16.206;2024-03-23T04:06:20;13.40;;;11.98;;
33810;SDS011;20119;48.334;16.206;2024-03-23T04:08:48;16.67;;;12.40;;
33810;SDS011;20119;48.334;16.206;2024-03-23T04:11:14;19.10;;;13.35;;
33810;SDS011;20119;48.334;16.206;2024-03-23T04:13:42;15.52;;;13.40;;
33810;SDS011;20119;48.334;16.206;2024-03-23T04:16:09;15.30;;;13.70;;
33810;SDS011;20119;48.334;16.206;2024-03-23T04:18:36;15.23;;;13.25;;
33810;SDS011;20119;48.334;16.206;2024-03-23T04:21:03;18.00;;;16.00;;
33810;SDS011;20119;48.334;16.206;2024-03-23T04:23:32;21.23;;;14.65;;
33810;SDS011;20119;48.334;16.206;2024-03-23T04:26:02;19.42;;;14.52;;
33810;SDS011;20119;48.334;16.206;2024-03-23T04:28:30;14.57;;;12.98;;
33810;SDS011;20119;48.334;16.206;2024-03-23T04:33:32;17.90;;;13.55;;
33810;SDS011;20119;48.334;16.206;2024-03-23T04:35:59;16.85;;;13.15;;
33810;SDS011;20119;48.334;16.206;2024-03-23T04:38:26;17.27;;;13.18;;
33810;SDS011;20119;48.334;16.206;2024-03-23T04:40:55;15.85;;;13.10;;
33810;SDS011;20119;48.334;16.206;2024-03-23T04:43:21;14.95;;;12.65;;
33810;SDS011;20119;48.334;16.206;2024-03-23T04:45:49;15.68;;;13.18;;
33810;SDS011;20119;48.334;16.206;2024-03-23T04:48:15;19.30;;;13.15;;
33810;SDS011;20119;48.334;16.206;2024-03-23T04:50:43;16.25;;;13.93;;
33810;SDS011;20119;48.334;16.206;2024-03-23T04:53:10;17.05;;;13.50;;
33810;SDS011;20119;48.334;16.206;2024-03-23T04:55:36;14.80;;;13.20;;
33810;SDS011;20119;48.334;16.206;2024-03-23T04:58:05;16.08;;;13.55;;
33810;SDS011;20119;48.334;16.206;2024-03-23T05:00:31;16.05;;;12.95;;
33810;SDS011;20119;48.334;16.206;2024-03-23T05:02:58;17.75;;;13.45;;
33810;SDS011;20119;48.334;16.206;2024-03-23T05:05:25;17.45;;;12.82;;
33810;SDS011;20119;48.334;16.206;2024-03-23T05:07:52;17.77;;;14.05;;
33810;SDS011;20119;48.334;16.206;2024-03-23T05:10:19;15.35;;;13.70;;
33810;SDS011;20119;48.334;16.206;2024-03-23T05:12:46;16.17;;;13.80;;
33810;SDS011;20119;48.334;16.206;2024-03-23T05:15:14;18.88;;;14.68;;
33810;SDS011;20119;48.334;16.206;2024-03-23T05:17:41;16.30;;;13.65;;
33810;SDS011;20119;48.334;16.206;2024-03-23T05:20:08;21.67;;;14.35;;
33810;SDS011;20119;48.334;16.206;2024-03-23T05:22:35;17.20;;;13.60;;
33810;SDS011;20119;48.334;16.206;2024-03-23T05:25:02;15.80;;;14.10;;
33810;SDS011;20119;48.334;16.206;2024-03-23T05:27:30;16.92;;;14.93;;
33810;SDS011;20119;48.334;16.206;2024-03-23T05:29:57;15.35;;;13.82;;
33810;SDS011;20119;48.334;16.206;2024-03-23T05:32:25;16.27;;;14.27;;
33810;SDS011;20119;48.334;16.206;2024-03-23T05:34:53;15.93;;;14.23;;
33810;SDS011;20119;48.334;16.206;2024-03-23T05:37:21;17.52;;;14.80;;
33810;SDS011;20119;48.334;16.206;2024-03-23T05:39:49;15.63;;;13.95;;
33810;SDS011;20119;48.334;16.206;2024-03-23T05:42:15;17.45;;;14.82;;
33810;SDS011;20119;48.334;16.206;2024-03-23T05:44:46;18.15;;;14.73;;
33810;SDS011;20119;48.334;16.206;2024-03-23T05:47:12;16.20;;;14.00;;
33810;SDS011;20119;48.334;16.206;2024-03-23T05:49:43;15.25;;;13.55;;
33810;SDS011;20119;48.334;16.206;2024-03-23T05:52:09;14.75;;;13.23;;
33810;SDS011;20119;48.334;16.206;2024-03-23T05:54:36;19.10;;;13.57;;
33810;SDS011;20119;48.334;16.206;2024-03-23T05:57:03;17.30;;;14.65;;
33810;SDS011;20119;48.334;16.206;2024-03-23T05:59:32;17.77;;;14.43;;
33810;SDS011;20119;48.334;16.206;2024-03-23T06:01:58;16.90;;;14.90;;
33810;SDS011;20119;48.334;16.206;2024-03-23T06:04:26;19.73;;;15.10;;
33810;SDS011;20119;48.334;16.206;2024-03-23T06:06:53;17.75;;;14.88;;
33810;SDS011;20119;48.334;16.206;2024-03-23T06:11:49;17.45;;;13.35;;
33810;SDS011;20119;48.334;16.206;2024-03-23T06:14:16;15.05;;;12.75;;
33810;SDS011;20119;48.334;16.206;2024-03-23T06:16:42;15.48;;;13.02;;
33810;SDS011;20119;48.334;16.206;2024-03-23T06:19:10;16.27;;;12.55;;
33810;SDS011;20119;48.334;16.206;2024-03-23T06:21:36;16.02;;;13.02;;
33810;SDS011;20119;48.334;16.206;2024-03-23T06:24:05;15.68;;;12.10;;
33810;SDS011;20119;48.334;16.206;2024-03-23T06:26:32;14.63;;;13.02;;
33810;SDS011;20119;48.334;16.206;2024-03-23T06:28:59;14.68;;;12.27;;
33810;SDS011;20119;48.334;16.206;2024-03-23T06:31:26;15.50;;;12.77;;
33810;SDS011;20119;48.334;16.206;2024-03-23T06:33:54;16.35;;;12.88;;
33810;SDS011;20119;48.334;16.206;2024-03-23T06:36:22;15.73;;;13.00;;
33810;SDS011;20119;48.334;16.206;2024-03-23T06:38:48;14.43;;;12.65;;
33810;SDS011;20119;48.334;16.206;2024-03-23T06:41:19;17.98;;;13.35;;
33810;SDS011;20119;48.334;16.206;2024-03-23T06:43:45;15.20;;;12.27;;
33810;SDS011;20119;48.334;16.206;2024-03-23T06:46:12;17.02;;;13.23;;
33810;SDS011;20119;48.334;16.206;2024-03-23T06:48:39;15.07;;;13.20;;
33810;SDS011;20119;48.334;16.206;2024-03-23T06:51:06;19.55;;;14.18;;
33810;SDS011;20119;48.334;16.206;2024-03-23T06:53:34;18.48;;;14.63;;
33810;SDS011;20119;48.334;16.206;2024-03-23T06:56:01;16.00;;;13.80;;
33810;SDS011;20119;48.334;16.206;2024-03-23T06:58:29;19.15;;;14.48;;
33810;SDS011;20119;48.334;16.206;2024-03-23T07:00:56;15.25;;;13.25;;
33810;SDS011;20119;48.334;16.206;2024-03-23T07:03:22;16.15;;;13.27;;
33810;SDS011;20119;48.334;16.206;2024-03-23T07:05:51;16.02;;;13.25;;
33810;SDS011;20119;48.334;16.206;2024-03-23T07:08:20;16.58;;;13.02;;
33810;SDS011;20119;48.334;16.206;2024-03-23T07:10:47;15.60;;;13.13;;
33810;SDS011;20119;48.334;16.206;2024-03-23T07:13:13;17.20;;;12.98;;
33810;SDS011;20119;48.334;16.206;2024-03-23T07:15:43;16.65;;;13.50;;
33810;SDS011;20119;48.334;16.206;2024-03-23T07:18:09;16.42;;;13.50;;
33810;SDS011;20119;48.334;16.206;2024-03-23T07:20:37;15.93;;;13.27;;
33810;SDS011;20119;48.334;16.206;2024-03-23T07:23:03;15.05;;;13.35;;
33810;SDS011;20119;48.334;16.206;2024-03-23T07:25:33;17.65;;;14.20;;
33810;SDS011;20119;48.334;16.206;2024-03-23T07:27:59;16.95;;;13.75;;
33810;SDS011;20119;48.334;16.206;2024-03-23T07:30:26;17.33;;;14.00;;
33810;SDS011;20119;48.334;16.206;2024-03-23T07:32:54;16.58;;;14.23;;
33810;SDS011;20119;48.334;16.206;2024-03-23T07:35:22;17.00;;;13.93;;
33810;SDS011;20119;48.334;16.206;2024-03-23T07:37:48;16.88;;;13.10;;
33810;SDS011;20119;48.334;16.206;2024-03-23T07:40:15;15.98;;;13.00;;
33810;SDS011;20119;48.334;16.206;2024-03-23T07:42:41;14.30;;;11.82;;
33810;SDS011;20119;48.334;16.206;2024-03-23T07:45:11;14.90;;;11.35;;
33810;SDS011;20119;48.334;16.206;2024-03-23T07:47:37;12.50;;;11.20;;
33810;SDS011;20119;48.334;16.206;2024-03-23T07:50:09;12.20;;;10.90;;
33810;SDS011;20119;48.334;16.206;2024-03-23T07:52:35;14.48;;;11.50;;
33810;SDS011;20119;48.334;16.206;2024-03-23T07:55:03;12.18;;;10.25;;
33810;SDS011;20119;48.334;16.206;2024-03-23T07:57:29;13.48;;;10.63;;
33810;SDS011;20119;48.334;16.206;2024-03-23T07:59:57;13.57;;;10.70;;
33810;SDS011;20119;48.334;16.206;2024-03-23T08:02:23;10.60;;;9.48;;
33810;SDS011;20119;48.334;16.206;2024-03-23T08:04:50;11.38;;;10.02;;
33810;SDS011;20119;48.334;16.206;2024-03-23T08:07:18;11.75;;;9.73;;
33810;SDS011;20119;48.334;16.206;2024-03-23T08:09:45;10.63;;;9.52;;
33810;SDS011;20119;48.334;16.206;2024-03-23T08:12:12;10.50;;;8.70;;
33810;SDS011;20119;48.334;16.206;2024-03-23T08:14:39;9.57;;;8.07;;
33810;SDS011;20119;48.334;16.206;2024-03-23T08:17:06;8.77;;;7.40;;
33810;SDS011;20119;48.334;16.206;2024-03-23T08:19:34;8.32;;;7.38;;
33810;SDS011;20119;48.334;16.206;2024-03-23T08:22:00;7.90;;;7.10;;
33810;SDS011;20119;48.334;16.206;2024-03-23T08:24:29;8.43;;;7.50;;
33810;SDS011;20119;48.334;16.206;2024-03-23T08:26:55;8.50;;;7.53;;
33810;SDS011;20119;48.334;16.206;2024-03-23T08:29:23;9.30;;;6.93;;
33810;SDS011;20119;48.334;16.206;2024-03-23T08:31:49;9.30;;;7.30;;
33810;SDS011;20119;48.334;16.206;2024-03-23T08:34:16;8.10;;;6.63;;
33810;SDS011;20119;48.334;16.206;2024-03-23T08:36:43;7.18;;;6.40;;
33810;SDS011;20119;48.334;16.206;2024-03-23T08:39:10;7.65;;;6.50;;
33810;SDS011;20119;48.334;16.206;2024-03-23T08:41:38;6.95;;;5.97;;
33810;SDS011;20119;48.334;16.206;2024-03-23T08:44:07;6.97;;;5.70;;
33810;SDS011;20119;48.334;16.206;2024-03-23T08:46:34;8.43;;;6.40;;
33810;SDS011;20119;48.334;16.206;2024-03-23T08:49:02;8.15;;;5.43;;
33810;SDS011;20119;48.334;16.206;2024-03-23T08:51:28;8.15;;;5.82;;
33810;SDS011;20119;48.334;16.206;2024-03-23T08:56:32;7.95;;;5.50;;
33810;SDS011;20119;48.334;16.206;2024-03-23T08:59:01;6.80;;;5.13;;
33810;SDS011;20119;48.334;16.206;2024-03-23T09:01:28;6.97;;;5.15;;
33810;SDS011;20119;48.334;16.206;2024-03-23T09:03:55;6.90;;;5.00;;
33810;SDS011;20119;48.334;16.206;2024-03-23T09:06:22;6.32;;;4.85;;
33810;SDS011;20119;48.334;16.206;2024-03-23T09:08:53;6.65;;;5.20;;
33810;SDS011;20119;48.334;16.206;2024-03-23T09:11:19;7.57;;;5.15;;
33810;SDS011;20119;48.334;16.206;2024-03-23T09:13:47;6.47;;;5.38;;
33810;SDS011;20119;48.334;16.206;2024-03-23T09:16:14;6.75;;;5.00;;
33810;SDS011;20119;48.334;16.206;2024-03-23T09:18:42;8.75;;;4.88;;
33810;SDS011;20119;48.334;16.206;2024-03-23T09:21:11;5.40;;;3.30;;
33810;SDS011;20119;48.334;16.206;2024-03-23T09:23:39;4.30;;;3.90;;
33810;SDS011;20119;48.334;16.206;2024-03-23T09:26:06;4.57;;;3.22;;
33810;SDS011;20119;48.334;16.206;2024-03-23T09:28:33;5.20;;;3.05;;
33810;SDS011;20119;48.334;16.206;2024-03-23T09:31:02;3.80;;;2.90;;
33810;SDS011;20119;48.334;16.206;2024-03-23T09:33:30;4.13;;;2.03;;
33810;SDS011;20119;48.334;16.206;2024-03-23T09:35:57;12.70;;;1.67;;
33810;SDS011;20119;48.334;16.206;2024-03-23T09:38:24;3.08;;;1.70;;
33810;SDS011;20119;48.334;16.206;2024-03-23T09:40:53;2.15;;;1.63;;
33810;SDS011;20119;48.334;16.206;2024-03-23T09:43:20;3.15;;;1.63;;
33810;SDS011;20119;48.334;16.206;2024-03-23T09:45:46;2.70;;;1.50;;
33810;SDS011;20119;48.334;16.206;2024-03-23T09:48:13;2.40;;;1.40;;
33810;SDS011;20119;48.334;16.206;2024-03-23T09:50:47;6.50;;;1.50;;
33810;SDS011;20119;48.334;16.206;2024-03-23T09:55:50;1.52;;;1.30;;
33810;SDS011;20119;48.334;16.206;2024-03-23T09:58:18;5.45;;;1.48;;
33810;SDS011;20119;48.334;16.206;2024-03-23T10:00:44;2.17;;;1.30;;
33810;SDS011;20119;48.334;16.206;2024-03-23T10:03:11;3.42;;;1.40;;
33810;SDS011;20119;48.334;16.206;2024-03-23T10:05:38;2.45;;;1.30;;
33810;SDS011;20119;48.334;16.206;2024-03-23T10:08:18;2.45;;;1.45;;
33810;SDS011;20119;48.334;16.206;2024-03-23T10:10:45;2.78;;;1.27;;
33810;SDS011;20119;48.334;16.206;2024-03-23T10:13:23;2.63;;;1.35;;
33810;SDS011;20119;48.334;16.206;2024-03-23T10:15:54;1.50;;;1.20;;
33810;SDS011;20119;48.334;16.206;2024-03-23T10:18:26;2.05;;;1.30;;
33810;SDS011;20119;48.334;16.206;2024-03-23T19:07:46;3.88;;;3.47;;
33810;SDS011;20119;48.334;16.206;2024-03-23T19:54:41;3.47;;;3.03;;
33810;SDS011;20119;48.334;16.206;2024-03-23T19:57:13;4.65;;;3.20;;
33810;SDS011;20119;48.334;16.206;2024-03-23T19:59:48;3.28;;;2.88;;
33810;SDS011;20119;48.334;16.206;2024-03-23T20:02:24;4.05;;;2.90;;
33810;SDS011;20119;48.334;16.206;2024-03-23T20:05:06;4.03;;;2.92;;
33810;SDS011;20119;48.334;16.206;2024-03-23T20:07:49;3.33;;;2.83;;
33810;SDS011;20119;48.334;16.206;2024-03-23T20:10:23;3.25;;;2.88;;
33810;SDS011;20119;48.334;16.206;2024-03-23T20:15:38;3.25;;;2.78;;
33810;SDS011;20119;48.334;16.206;2024-03-23T20:18:20;3.90;;;3.05;;
33810;SDS011;20119;48.334;16.206;2024-03-23T20:20:55;3.25;;;2.95;;
33810;SDS011;20119;48.334;16.206;2024-03-23T20:23:42;4.55;;;2.63;;
33810;SDS011;20119;48.334;16.206;2024-03-23T20:26:44;3.40;;;2.90;;
33810;SDS011;20119;48.334;16.206;2024-03-23T20:29:21;3.45;;;2.85;;
33810;SDS011;20119;48.334;16.206;2024-03-23T20:32:06;3.15;;;2.85;;
33810;SDS011;20119;48.334;16.206;2024-03-23T20:37:30;3.10;;;2.80;;
33810;SDS011;20119;48.334;16.206;2024-03-23T20:40:16;5.07;;;3.35;;
33810;SDS011;20119;48.334;16.206;2024-03-23T20:47:57;3.50;;;3.20;;
33810;SDS011;20119;48.334;16.206;2024-03-23T20:50:30;3.00;;;2.80;;
33810;SDS011;20119;48.334;16.206;2024-03-23T20:53:03;3.13;;;2.83;;
33810;SDS011;20119;48.334;16.206;2024-03-23T20:55:32;4.40;;;2.80;;
33810;SDS011;20119;48.334;16.206;2024-03-23T20:58:03;3.13;;;2.83;;
33810;SDS011;20119;48.334;16.206;2024-03-23T21:00:33;3.40;;;2.75;;
33810;SDS011;20119;48.334;16.206;2024-03-23T21:05:40;2.58;;;2.38;;
33810;SDS011;20119;48.334;16.206;2024-03-23T21:08:14;3.53;;;2.40;;
33810;SDS011;20119;48.334;16.206;2024-03-23T21:10:48;2.83;;;2.30;;
33810;SDS011;20119;48.334;16.206;2024-03-23T21:13:34;3.15;;;2.83;;
33810;SDS011;20119;48.334;16.206;2024-03-23T21:16:58;3.83;;;2.60;;
33810;SDS011;20119;48.334;16.206;2024-03-23T21:19:52;3.03;;;2.67;;
33810;SDS011;20119;48.334;16.206;2024-03-23T21:22:32;5.40;;;2.92;;
33810;SDS011;20119;48.334;16.206;2024-03-23T21:25:30;3.50;;;3.00;;
33810;SDS011;20119;48.334;16.206;2024-03-23T21:30:43;4.70;;;3.17;;
33810;SDS011;20119;48.334;16.206;2024-03-23T21:33:12;4.10;;;3.50;;
33810;SDS011;20119;48.334;16.206;2024-03-23T21:35:41;4.50;;;3.75;;
33810;SDS011;20119;48.334;16.206;2024-03-23T21:38:16;6.22;;;3.53;;
33810;SDS011;20119;48.334;16.206;2024-03-23T21:43:31;5.50;;;3.65;;
33810;SDS011;20119;48.334;16.206;2024-03-23T21:46:00;4.00;;;3.60;;
33810;SDS011;20119;48.334;16.206;2024-03-23T21:58:52;4.00;;;3.40;;
33810;SDS011;20119;48.334;16.206;2024-03-23T22:01:33;4.38;;;3.70;;
33810;SDS011;20119;48.334;16.206;2024-03-23T22:06:29;6.47;;;4.18;;
33810;SDS011;20119;48.334;16.206;2024-03-23T22:11:34;6.32;;;3.85;;
33810;SDS011;20119;48.334;16.206;2024-03-23T22:14:12;6.80;;;4.20;;
33810;SDS011;20119;48.334;16.206;2024-03-23T22:16:47;6.20;;;4.05;;
33810;SDS011;20119;48.334;16.206;2024-03-23T22:19:39;7.22;;;3.92;;
33810;SDS011;20119;48.334;16.206;2024-03-23T22:22:12;5.32;;;3.85;;
33810;SDS011;20119;48.334;16.206;2024-03-23T22:24:44;4.80;;;3.90;;
33810;SDS011;20119;48.334;16.206;2024-03-23T22:27:11;5.55;;;3.60;;
33810;SDS011;20119;48.334;16.206;2024-03-23T22:32:40;4.65;;;3.50;;
33810;SDS011;20119;48.334;16.206;2024-03-23T22:35:40;6.13;;;3.95;;
33810;SDS011;20119;48.334;16.206;2024-03-23T22:38:26;4.82;;;4.03;;
33810;SDS011;20119;48.334;16.206;2024-03-23T22:40:55;5.35;;;4.22;;
33810;SDS011;20119;48.334;16.206;2024-03-23T22:44:14;4.53;;;3.90;;
33810;SDS011;20119;48.334;16.206;2024-03-23T22:47:17;4.85;;;3.78;;
33810;SDS011;20119;48.334;16.206;2024-03-23T22:52:29;6.07;;;4.43;;
33810;SDS011;20119;48.334;16.206;2024-03-23T22:57:36;5.07;;;4.50;;
33810;SDS011;20119;48.334;16.206;2024-03-23T23:00:08;4.53;;;4.13;;
33810;SDS011;20119;48.334;16.206;2024-03-23T23:05:15;4.60;;;4.15;;
33810;SDS011;20119;48.334;16.206;2024-03-23T23:10:26;4.25;;;3.85;;
33810;SDS011;20119;48.334;16.206;2024-03-23T23:12:57;5.13;;;4.50;;
33810;SDS011;20119;48.334;16.206;2024-03-23T23:15:37;5.47;;;4.97;;
33810;SDS011;20119;48.334;16.206;2024-03-23T23:18:24;5.90;;;5.20;;
33810;SDS011;20119;48.334;16.206;2024-03-23T23:25:59;6.57;;;5.72;;
33810;SDS011;20119;48.334;16.206;2024-03-23T23:28:34;5.95;;;5.35;;
33810;SDS011;20119;48.334;16.206;2024-03-23T23:31:05;5.75;;;5.25;;
33810;SDS011;20119;48.334;16.206;2024-03-23T23:38:47;6.22;;;5.45;;
33810;SDS011;20119;48.334;16.206;2024-03-23T23:41:23;6.50;;;5.03;;
33810;SDS011;20119;48.334;16.206;2024-03-23T23:46:29;5.75;;;5.10;;
33810;SDS011;20119;48.334;16.206;2024-03-23T23:49:11;5.50;;;4.97;;
33810;SDS011;20119;48.334;16.206;2024-03-23T23:54:14;5.18;;;4.68;;
33810;SDS011;20119;48.334;16.206;2024-03-23T23:56:47;6.78;;;5.28;;
33810;SDS011;20119;48.334;16.206;2024-03-23T23:59:15;5.07;;;4.60;;
